Terminal Aerodrome Forecast
Issued by NWS Wilmington, OH

Current Version | Previous Version | Text Only | Print | Product List | Glossary Off
Versions: 1 2 3 4 5 6 7 8 9 10 11 12 13 14 15 16 17

000
FTUS41 KILN 280500
TAFDAY
TAF
KDAY 280539Z 2806/2906 21012KT P6SM OVC200
     FM281300 22014G24KT P6SM VCSH OVC040
     FM281500 23014G24KT 5SM -SHRA BR VCTS OVC025CB
     FM281900 27012KT P6SM SCT040 OVC100
     FM282200 26008KT P6SM BKN200=

USA.gov is the U.S. government's official web portal to all federal, state and local government web resources and services.